Time;durP1;ratioP1;P1;durP2;ratioP2;P2;SDS_P1;SDS_P2;PMS_P1;PMS_P2;Temp;Humidity;BMP_temperature;BMP_pressure;BME280_temperature;BME280_humidity;BME280_pressure;Samples;Min_cycle;Max_cycle;Signal;HPM_P1;HPM_P2
2021/04/17 00:02:34;;;;;;;12.88;8.00;;;;;;;6.59;60.79;101001.84;4980908;28;20074;-84
2021/04/17 00:05:19;;;;;;;11.77;6.78;;;;;;;6.53;61.68;100994.03;4960392;28;20058;-84
2021/04/17 00:08:05;;;;;;;15.48;8.80;;;;;;;6.44;61.34;100993.84;4999317;28;20057;-83
2021/04/17 00:10:50;;;;;;;13.43;8.38;;;;;;;6.36;61.51;100997.13;4974513;28;20042;-85
2021/04/17 00:13:35;;;;;;;13.00;8.68;;;;;;;6.41;61.75;100999.78;4965378;28;20045;-85
2021/04/17 00:16:20;;;;;;;12.65;6.55;;;;;;;6.58;61.35;100988.59;4966142;28;20058;-84
2021/04/17 00:19:05;;;;;;;15.00;8.52;;;;;;;6.38;61.35;100990.38;4985230;28;20152;-85
2021/04/17 00:21:50;;;;;;;13.55;8.80;;;;;;;6.51;61.42;100977.31;4966701;28;20411;-84
2021/04/17 00:24:36;;;;;;;10.52;5.85;;;;;;;6.28;60.96;100976.94;4962218;28;20517;-84
2021/04/17 00:27:21;;;;;;;15.98;8.18;;;;;;;6.46;62.07;100975.44;4987805;28;20101;-84
2021/04/17 00:30:08;;;;;;;11.32;6.13;;;;;;;6.37;62.01;100979.84;4972157;28;20045;-85
2021/04/17 00:32:52;;;;;;;12.13;8.52;;;;;;;6.24;62.10;100977.78;4975917;28;20049;-85
2021/04/17 00:35:38;;;;;;;11.43;6.43;;;;;;;6.25;62.19;100969.38;5002472;28;20057;-84
2021/04/17 00:38:22;;;;;;;21.13;9.27;;;;;;;6.14;61.73;100967.84;5005162;28;20048;-83
2021/04/17 00:41:07;;;;;;;10.68;6.45;;;;;;;6.09;62.49;100965.19;4979398;28;20054;-83
2021/04/17 00:43:52;;;;;;;11.60;6.78;;;;;;;5.94;62.90;100952.56;4999659;28;20049;-83
2021/04/17 00:46:37;;;;;;;10.38;6.05;;;;;;;5.95;63.50;100947.97;5002623;28;20057;-83
2021/04/17 00:49:22;;;;;;;12.52;6.88;;;;;;;5.73;63.49;100945.63;4965731;28;20046;-83
2021/04/17 00:52:08;;;;;;;12.80;6.65;;;;;;;6.00;63.04;100950.63;4960674;28;20049;-83
2021/04/17 00:54:54;;;;;;;19.13;8.15;;;;;;;6.04;63.23;100948.22;4984014;28;20050;-83
2021/04/17 00:57:39;;;;;;;18.77;8.93;;;;;;;6.05;62.89;100949.78;4986368;28;20053;-84
2021/04/17 01:00:25;;;;;;;21.20;9.63;;;;;;;6.22;62.40;100950.25;4973637;28;20040;-84
2021/04/17 01:03:40;;;;;;;20.23;9.32;;;;;;;5.67;63.77;100938.66;4986010;28;20068;-84
2021/04/17 01:06:40;;;;;;;14.68;8.15;;;;;;;5.95;63.15;100945.25;4964964;28;20407;-84
2021/04/17 01:09:49;;;;;;;12.05;7.32;;;;;;;6.12;62.23;100936.81;4973524;28;20069;-84
2021/04/17 01:12:43;;;;;;;16.40;8.40;;;;;;;5.75;63.05;100929.97;4986543;28;20398;-84
2021/04/17 01:15:29;;;;;;;13.55;8.30;;;;;;;5.95;63.91;100927.19;4974453;28;20049;-84
2021/04/17 01:18:15;;;;;;;12.85;7.28;;;;;;;5.57;64.46;100926.00;4999090;28;20045;-84
2021/04/17 01:21:01;;;;;;;10.35;7.53;;;;;;;5.49;64.78;100920.38;5004800;28;20418;-84
2021/04/17 01:23:57;;;;;;;17.45;8.52;;;;;;;5.43;65.08;100925.00;4977979;28;20050;-83
2021/04/17 01:26:43;;;;;;;12.10;7.55;;;;;;;5.45;64.46;100928.22;4987007;28;20057;-84
2021/04/17 01:29:29;;;;;;;13.07;7.85;;;;;;;5.30;65.40;100928.28;4999396;28;20049;-83
2021/04/17 01:32:15;;;;;;;12.20;7.35;;;;;;;5.49;64.37;100923.06;5003948;28;20060;-84
2021/04/17 01:35:00;;;;;;;13.35;7.55;;;;;;;5.60;65.28;100925.44;4989197;28;20045;-83
2021/04/17 01:38:02;;;;;;;17.67;8.30;;;;;;;5.87;65.45;100927.78;4987062;28;20410;-83
2021/04/17 01:40:52;;;;;;;14.90;8.57;;;;;;;5.82;64.78;100922.38;4971719;28;20045;-83
2021/04/17 01:43:38;;;;;;;18.80;8.52;;;;;;;5.59;64.36;100913.03;4969752;28;20053;-82
2021/04/17 01:46:25;;;;;;;16.90;8.20;;;;;;;5.52;64.17;100914.44;5000177;28;20057;-83
2021/04/17 01:49:14;;;;;;;11.38;7.75;;;;;;;5.57;63.82;100915.22;4965225;28;20070;-83
2021/04/17 01:52:01;;;;;;;15.20;8.13;;;;;;;5.63;63.67;100913.31;4980813;28;20050;-84
2021/04/17 01:54:50;;;;;;;14.30;7.53;;;;;;;5.72;64.13;100913.53;4990966;28;20062;-84
2021/04/17 01:57:36;;;;;;;12.70;7.80;;;;;;;5.71;64.66;100912.72;4984484;28;20051;-83
2021/04/17 02:00:21;;;;;;;13.43;7.40;;;;;;;5.74;64.33;100912.16;4965556;28;20054;-84
2021/04/17 02:03:06;;;;;;;10.95;7.53;;;;;;;5.68;64.61;100907.91;4980121;28;20058;-83
2021/04/17 02:05:52;;;;;;;13.30;7.72;;;;;;;5.33;64.14;100897.28;4989968;28;20066;-84
2021/04/17 02:08:38;;;;;;;20.30;8.82;;;;;;;5.53;63.45;100895.28;4971612;28;20046;-83
2021/04/17 02:11:30;;;;;;;16.60;9.15;;;;;;;5.59;63.11;100899.56;5011275;28;20049;-83
2021/04/17 02:14:15;;;;;;;20.25;8.90;;;;;;;5.48;63.34;100883.72;4970232;28;20073;-83
2021/04/17 02:17:25;;;;;;;14.77;8.63;;;;;;;5.54;63.79;100893.38;4973559;28;20533;-84
2021/04/17 02:20:14;;;;;;;15.00;7.65;;;;;;;5.64;63.58;100893.31;4973420;28;20046;-83
2021/04/17 02:22:58;;;;;;;15.38;8.38;;;;;;;5.57;62.56;100879.34;5006976;28;20048;-83
2021/04/17 02:25:45;;;;;;;15.52;8.60;;;;;;;5.53;62.56;100879.13;5019974;28;20061;-84
2021/04/17 02:28:31;;;;;;;15.85;8.98;;;;;;;5.59;63.13;100879.88;4968462;28;20419;-83
2021/04/17 02:31:16;;;;;;;14.73;8.10;;;;;;;5.64;63.13;100879.06;4984479;28;20045;-83
2021/04/17 02:34:03;;;;;;;18.00;8.30;;;;;;;5.63;62.95;100886.34;4965531;28;20534;-83
2021/04/17 02:36:48;;;;;;;12.07;8.48;;;;;;;5.63;63.11;100889.03;4970998;28;20045;-84
2021/04/17 02:39:34;;;;;;;15.20;8.52;;;;;;;5.60;63.38;100884.19;5009366;23;20068;-81
2021/04/17 02:42:18;;;;;;;13.38;7.30;;;;;;;5.62;63.76;100876.63;4994994;28;20053;-81
2021/04/17 02:45:04;;;;;;;9.88;6.72;;;;;;;5.64;63.65;100877.13;5013310;28;20053;-81
2021/04/17 02:47:49;;;;;;;12.93;8.70;;;;;;;5.74;62.98;100879.00;4995951;28;20045;-81
2021/04/17 02:50:34;;;;;;;9.57;6.20;;;;;;;5.52;64.15;100882.06;5007733;28;20429;-81
2021/04/17 02:53:19;;;;;;;11.70;6.57;;;;;;;5.42;65.10;100882.13;4996805;28;20529;-81
2021/04/17 02:56:04;;;;;;;16.17;7.88;;;;;;;5.46;64.19;100885.88;5006932;28;20088;-81
2021/04/17 02:58:50;;;;;;;13.50;7.40;;;;;;;5.20;64.96;100881.66;5005017;28;20041;-81
2021/04/17 03:01:35;;;;;;;11.63;6.00;;;;;;;5.05;64.63;100869.84;4998939;28;20053;-81
2021/04/17 03:04:20;;;;;;;10.30;6.43;;;;;;;4.88;64.22;100871.25;4997760;28;20037;-81
2021/04/17 03:07:05;;;;;;;11.45;6.75;;;;;;;4.79;65.19;100873.69;4997985;28;20049;-81
2021/04/17 03:09:50;;;;;;;12.02;7.50;;;;;;;4.72;65.12;100870.50;4994290;28;20049;-80
2021/04/17 03:12:35;;;;;;;11.38;6.20;;;;;;;4.80;65.49;100882.59;4992764;28;20062;-80
2021/04/17 03:15:20;;;;;;;11.65;6.28;;;;;;;5.11;64.95;100876.03;5020113;28;20025;-80
2021/04/17 03:18:05;;;;;;;17.83;6.43;;;;;;;4.98;65.41;100877.41;4998720;28;20053;-80
2021/04/17 03:20:50;;;;;;;12.27;6.70;;;;;;;4.94;65.21;100880.94;4994950;28;20045;-80
2021/04/17 03:23:35;;;;;;;10.70;6.15;;;;;;;5.05;65.51;100879.84;4994971;28;20061;-80
2021/04/17 03:26:20;;;;;;;14.48;8.35;;;;;;;4.96;65.18;100868.81;4995133;28;20045;-80
2021/04/17 03:29:05;;;;;;;11.07;7.00;;;;;;;4.93;65.32;100868.53;5009201;28;20052;-81
2021/04/17 03:31:50;;;;;;;10.90;6.95;;;;;;;4.80;65.50;100869.94;4998634;28;20521;-81
2021/04/17 03:34:35;;;;;;;17.30;7.50;;;;;;;4.88;65.60;100865.84;5001913;28;20124;-82
2021/04/17 03:37:20;;;;;;;;;;;;;;;4.83;66.30;100865.88;5018026;28;20045;-81
2021/04/17 03:40:08;;;;;;;14.48;9.82;;;;;;;4.88;65.27;100866.66;5011295;28;19917;-82
2021/04/17 03:42:53;;;;;;;11.68;8.15;;;;;;;4.87;65.28;100861.56;5003500;28;20046;-82
2021/04/17 03:45:38;;;;;;;10.48;6.63;;;;;;;4.72;65.34;100859.72;5008225;28;20406;-81
2021/04/17 03:48:23;;;;;;;12.18;7.38;;;;;;;4.74;65.02;100850.28;4992974;28;20045;-80
2021/04/17 03:51:08;;;;;;;11.77;6.72;;;;;;;4.84;64.92;100849.44;4997274;28;20517;-80
2021/04/17 03:53:53;;;;;;;12.07;7.00;;;;;;;4.79;64.59;100852.16;4996715;28;20513;-81
2021/04/17 03:56:38;;;;;;;15.13;9.15;;;;;;;4.84;65.68;100851.31;4994563;28;20053;-81
2021/04/17 03:59:23;;;;;;;10.50;5.25;;;;;;;5.14;63.97;100849.34;5007661;28;20041;-82
2021/04/17 04:02:08;;;;;;;11.13;6.50;;;;;;;5.44;61.80;100850.28;5000748;28;20045;-81
2021/04/17 04:04:53;;;;;;;16.85;7.75;;;;;;;5.56;61.54;100848.06;4997863;28;20048;-81
2021/04/17 04:07:40;;;;;;;10.90;6.38;;;;;;;5.63;60.38;100845.88;4996236;28;20057;-81
2021/04/17 04:10:25;;;;;;;12.52;7.60;;;;;;;5.63;60.59;100840.47;4990348;28;20037;-81
2021/04/17 04:13:09;;;;;;;11.38;5.78;;;;;;;5.71;62.08;100850.69;4997796;28;20045;-82
2021/04/17 04:15:54;;;;;;;11.85;5.90;;;;;;;5.52;61.17;100847.81;4992990;28;20417;-81
2021/04/17 04:18:39;;;;;;;11.15;6.25;;;;;;;5.35;60.96;100854.63;4983945;28;20056;-81
2021/04/17 04:21:25;;;;;;;10.93;5.95;;;;;;;5.51;60.37;100861.56;5009318;28;20045;-80
2021/04/17 04:24:10;;;;;;;15.95;7.25;;;;;;;5.57;60.47;100860.47;4989504;28;20045;-81
2021/04/17 04:26:55;;;;;;;;;;;;;;;5.52;60.29;100852.41;4997045;28;20541;-81
2021/04/17 04:29:39;;;;;;;14.57;7.50;;;;;;;5.41;61.05;100853.53;5010525;28;19914;-81
2021/04/17 04:32:25;;;;;;;11.77;5.13;;;;;;;5.26;61.32;100854.41;4998501;28;20053;-81
2021/04/17 04:35:10;;;;;;;11.00;6.43;;;;;;;5.27;60.84;100855.22;4999025;28;20053;-81
2021/04/17 04:37:55;;;;;;;;;;;;;;;5.16;61.24;100849.06;4999008;28;20560;-81
2021/04/17 04:40:39;;;;;;;15.07;7.78;;;;;;;5.24;60.88;100856.56;4990879;28;19917;-81
2021/04/17 04:43:25;;;;;;;10.65;6.20;;;;;;;5.34;60.81;100855.72;4995575;28;20049;-80
2021/04/17 04:46:10;;;;;;;14.15;8.50;;;;;;;5.45;60.66;100860.78;4992778;28;20117;-81
2021/04/17 04:48:55;;;;;;;8.73;5.60;;;;;;;5.43;60.65;100854.09;4980592;28;20042;-81
2021/04/17 04:51:40;;;;;;;15.68;6.32;;;;;;;5.32;60.17;100852.50;4995845;28;20041;-80
2021/04/17 04:54:25;;;;;;;10.55;6.55;;;;;;;5.54;60.24;100858.31;4994481;28;20053;-81
2021/04/17 04:57:10;;;;;;;9.57;5.95;;;;;;;5.71;60.33;100860.66;4993031;28;20449;-79
2021/04/17 04:59:55;;;;;;;12.00;6.68;;;;;;;5.38;60.29;100852.22;5004774;28;20053;-80
2021/04/17 05:02:41;;;;;;;15.25;8.02;;;;;;;5.30;60.25;100862.75;4992257;28;20414;-79
2021/04/17 05:05:25;;;;;;;10.23;5.47;;;;;;;5.24;60.76;100861.97;4991042;28;20057;-80
2021/04/17 05:08:10;;;;;;;18.67;6.60;;;;;;;5.28;60.42;100867.63;4994763;28;20046;-79
2021/04/17 05:10:56;;;;;;;22.67;8.98;;;;;;;5.58;59.47;100857.50;4991698;28;20049;-80
2021/04/17 05:13:41;;;;;;;22.35;7.10;;;;;;;5.42;60.19;100860.56;4986541;28;20518;-79
2021/04/17 05:16:26;;;;;;;10.88;5.97;;;;;;;5.34;60.43;100863.81;4994061;28;20121;-79
2021/04/17 05:19:11;;;;;;;9.65;6.10;;;;;;;5.68;59.58;100867.44;4990082;28;20048;-80
2021/04/17 05:21:56;;;;;;;12.07;6.18;;;;;;;5.93;59.07;100869.19;5011563;28;20599;-81
2021/04/17 05:24:42;;;;;;;20.80;8.25;;;;;;;5.87;59.58;100865.72;4993123;28;20065;-81
2021/04/17 05:27:26;;;;;;;24.00;7.18;;;;;;;6.20;58.86;100874.09;4992784;28;20054;-82
2021/04/17 05:30:12;;;;;;;15.63;6.05;;;;;;;6.35;56.79;100866.69;4992204;28;20049;-82
2021/04/17 05:32:57;;;;;;;13.73;7.35;;;;;;;6.41;56.57;100870.16;4993812;28;20069;-82
2021/04/17 05:35:42;;;;;;;11.20;5.80;;;;;;;6.68;56.03;100872.34;4997331;28;20042;-82
2021/04/17 05:38:27;;;;;;;11.93;6.05;;;;;;;6.84;56.04;100873.81;4996633;28;20414;-81
2021/04/17 05:41:12;;;;;;;9.93;5.85;;;;;;;7.05;54.83;100874.38;5004932;28;20049;-82
2021/04/17 05:43:57;;;;;;;26.83;15.32;;;;;;;7.24;54.27;100877.94;4994883;28;20368;-81
2021/04/17 05:46:43;;;;;;;19.05;7.30;;;;;;;7.37;54.75;100879.94;5012338;28;20033;-80
2021/04/17 05:49:28;;;;;;;16.50;8.32;;;;;;;7.56;54.15;100880.00;4986852;28;20045;-81
2021/04/17 05:52:13;;;;;;;13.48;6.80;;;;;;;7.83;53.27;100880.13;4998182;28;20053;-81
2021/04/17 05:54:58;;;;;;;18.15;8.05;;;;;;;8.08;53.84;100876.25;4995208;28;20537;-82
2021/04/17 05:57:43;;;;;;;18.63;6.22;;;;;;;8.13;51.70;100878.88;4986974;28;20092;-81
2021/04/17 06:00:28;;;;;;;13.13;6.82;;;;;;;8.29;51.40;100887.56;4989401;28;20054;-81
2021/04/17 06:03:14;;;;;;;20.58;7.85;;;;;;;8.73;50.49;100879.00;4999207;28;20049;-81
2021/04/17 06:05:59;;;;;;;11.38;5.78;;;;;;;9.04;49.58;100893.59;5008636;28;20045;-81
2021/04/17 06:08:44;;;;;;;14.98;5.88;;;;;;;9.21;48.96;100888.38;5004183;28;20050;-80
2021/04/17 06:11:29;;;;;;;15.80;7.65;;;;;;;9.64;47.95;100891.56;4993326;28;20041;-81
2021/04/17 06:14:14;;;;;;;11.43;6.15;;;;;;;9.87;47.62;100895.13;4996488;28;20434;-81
2021/04/17 06:16:59;;;;;;;13.18;6.15;;;;;;;10.14;45.65;100891.53;5001661;28;20045;-80
2021/04/17 06:19:44;;;;;;;9.40;4.30;;;;;;;10.47;45.22;100887.47;4993210;28;20065;-81
2021/04/17 06:22:29;;;;;;;12.63;5.18;;;;;;;10.84;43.21;100888.97;5010174;28;20045;-80
2021/04/17 06:25:15;;;;;;;11.55;4.82;;;;;;;11.29;42.66;100891.56;5001879;28;20073;-81
2021/04/17 06:27:59;;;;;;;19.67;5.50;;;;;;;11.18;42.93;100887.50;4999564;28;20056;-80
2021/04/17 06:30:45;;;;;;;10.02;4.47;;;;;;;11.55;41.45;100889.72;5007716;28;20041;-81
2021/04/17 06:33:30;;;;;;;13.32;5.47;;;;;;;11.59;41.21;100882.50;5013665;28;20045;-80
2021/04/17 06:36:16;;;;;;;15.38;4.88;;;;;;;12.09;39.51;100885.63;4999985;28;20073;-81
2021/04/17 06:39:05;;;;;;;8.27;4.28;;;;;;;12.71;38.98;100883.28;5010531;28;20038;-81
2021/04/17 06:41:56;;;;;;;9.18;4.20;;;;;;;13.00;35.66;100889.97;4999408;28;20053;-81
2021/04/17 06:44:43;;;;;;;11.18;5.00;;;;;;;13.73;34.27;100882.38;5000008;28;20037;-80
2021/04/17 06:47:28;;;;;;;9.93;5.00;;;;;;;13.97;33.66;100869.63;5009811;28;20049;-81
2021/04/17 06:50:13;;;;;;;6.47;3.97;;;;;;;14.29;31.56;100876.28;5001207;28;20065;-81
2021/04/17 06:53:04;;;;;;;9.18;4.28;;;;;;;15.49;30.14;100874.09;4999735;28;20045;-81
2021/04/17 06:55:53;;;;;;;11.93;5.10;;;;;;;15.41;29.31;100873.06;5010345;28;20631;-80
2021/04/17 06:58:39;;;;;;;7.53;4.22;;;;;;;16.24;27.93;100874.41;5010734;28;20049;-80
2021/04/17 07:01:24;;;;;;;10.77;4.25;;;;;;;17.00;26.52;100878.81;5019765;28;20037;-80
2021/04/17 07:04:09;;;;;;;7.53;3.95;;;;;;;16.59;25.61;100871.88;5002553;28;20049;-81
2021/04/17 07:06:55;;;;;;;10.52;4.55;;;;;;;16.97;24.09;100868.53;5001579;28;20062;-82
2021/04/17 07:09:41;;;;;;;8.52;4.63;;;;;;;18.17;24.18;100868.56;5000693;28;20521;-81
2021/04/17 07:12:26;;;;;;;;;;;;;;;18.73;23.19;100873.59;5000479;28;20045;-79
2021/04/17 07:15:14;;;;;;;9.20;3.65;;;;;;;18.72;22.14;100872.00;5003159;28;19918;-81
2021/04/17 07:17:59;;;;;;;8.68;3.85;;;;;;;18.85;21.81;100872.59;5006391;28;20041;-81
2021/04/17 07:20:44;;;;;;;6.70;3.65;;;;;;;19.28;20.32;100868.59;5011057;28;20045;-81
2021/04/17 07:23:32;;;;;;;9.30;3.38;;;;;;;19.23;21.56;100866.97;5002210;28;20049;-83
2021/04/17 07:26:28;;;;;;;6.97;3.55;;;;;;;18.66;21.37;100874.25;4999525;28;20049;-81
2021/04/17 07:29:15;;;;;;;11.25;4.82;;;;;;;19.51;20.83;100863.84;4983799;28;20045;-80
2021/04/17 07:32:01;;;;;;;8.68;4.40;;;;;;;18.77;21.21;100863.44;5017042;28;20053;-86
2021/04/17 07:35:14;;;;;;;5.95;3.60;;;;;;;18.47;22.19;100862.44;4999427;28;20037;-83
2021/04/17 07:38:12;;;;;;;6.47;3.38;;;;;;;21.22;20.15;100873.75;4995380;28;20049;-84
2021/04/17 07:41:10;;;;;;;15.52;3.53;;;;;;;17.80;22.84;100865.41;5013213;28;20049;-80
2021/04/17 07:44:00;;;;;;;13.30;3.80;;;;;;;15.90;24.62;100875.75;4994433;28;20049;-80
2021/04/17 07:46:45;;;;;;;4.65;3.00;;;;;;;18.52;21.47;100864.91;4998832;28;20060;-80
2021/04/17 07:49:30;;;;;;;;;;;;;;;19.16;21.61;100872.34;5009713;28;20049;-80
2021/04/17 07:52:16;;;;;;;6.00;3.58;;;;;;;19.25;20.91;100869.34;4993814;28;19917;-80
2021/04/17 07:55:08;;;;;;;6.38;3.85;;;;;;;18.32;21.98;100875.94;4996237;28;20410;-80
2021/04/17 07:57:55;;;;;;;13.73;5.13;;;;;;;16.36;24.21;100859.81;4997637;28;20042;-81
2021/04/17 08:00:40;;;;;;;11.48;5.22;;;;;;;15.77;24.53;100865.97;4995674;28;20040;-81
2021/04/17 08:03:26;;;;;;;5.00;3.67;;;;;;;16.02;24.82;100869.44;4998078;28;20049;-81
2021/04/17 08:06:11;;;;;;;7.20;4.03;;;;;;;18.58;22.56;100867.03;4997973;28;20053;-81
2021/04/17 08:08:59;;;;;;;7.65;4.05;;;;;;;19.48;20.88;100859.88;4999571;28;20058;-81
2021/04/17 08:11:48;;;;;;;8.13;4.55;;;;;;;18.63;22.50;100857.66;4999488;28;20038;-81
2021/04/17 08:14:34;;;;;;;9.05;3.72;;;;;;;18.82;21.43;100854.06;4998686;28;20045;-81
2021/04/17 08:17:20;;;;;;;6.50;3.45;;;;;;;17.97;22.20;100857.91;5014738;28;20034;-82
2021/04/17 08:20:08;;;;;;;10.07;3.72;;;;;;;15.85;25.17;100864.25;5005892;28;20041;-82
2021/04/17 08:22:53;;;;;;;8.02;4.03;;;;;;;14.57;27.03;100851.09;4997412;28;20045;-82
2021/04/17 08:25:39;;;;;;;9.02;4.30;;;;;;;16.47;24.97;100863.66;4995463;28;20537;-82
2021/04/17 08:28:27;;;;;;;7.47;3.67;;;;;;;14.86;26.36;100850.91;4999453;28;20053;-82
2021/04/17 08:31:30;;;;;;;6.00;3.83;;;;;;;15.41;26.43;100859.38;4998983;28;20394;-82
2021/04/17 08:34:18;;;;;;;6.75;4.47;;;;;;;15.54;26.73;100862.94;4992574;28;20053;-82
2021/04/17 08:37:05;;;;;;;12.25;4.53;;;;;;;16.48;25.40;100859.75;5002639;28;20056;-82
2021/04/17 08:39:53;;;;;;;8.13;4.20;;;;;;;16.61;25.05;100866.81;5000368;28;20049;-81
2021/04/17 08:42:45;;;;;;;7.22;3.35;;;;;;;17.64;23.50;100858.38;5002564;28;20053;-81
2021/04/17 08:45:30;;;;;;;5.50;3.60;;;;;;;17.73;24.15;100854.25;5000126;28;20049;-81
2021/04/17 08:48:15;;;;;;;8.68;4.22;;;;;;;16.82;24.28;100859.13;5037556;22;20052;-80
2021/04/17 08:51:24;;;;;;;23.80;4.82;;;;;;;16.66;24.39;100856.38;5005751;28;20523;-81
2021/04/17 08:54:09;;;;;;;7.15;3.58;;;;;;;17.26;23.67;100839.81;5009548;28;20325;-81
2021/04/17 08:57:02;;;;;;;8.20;3.67;;;;;;;16.62;24.78;100851.94;5007699;28;20045;-81
2021/04/17 08:59:56;;;;;;;4.72;3.45;;;;;;;17.55;23.40;100847.53;5024441;28;20045;-81
2021/04/17 09:02:49;;;;;;;8.93;3.92;;;;;;;15.81;24.61;100853.16;5019711;28;20045;-79
2021/04/17 09:05:47;;;;;;;5.82;3.65;;;;;;;18.93;22.47;100855.03;5012606;28;20389;-82
2021/04/17 09:08:32;;;;;;;5.55;4.18;;;;;;;20.51;20.51;100857.66;4995939;28;20056;-81
2021/04/17 09:11:35;;;;;;;11.98;4.50;;;;;;;19.83;21.07;100854.06;4999373;28;20033;-82
2021/04/17 09:14:27;;;;;;;15.68;5.80;;;;;;;22.24;18.40;100856.16;5031415;28;20049;-81
2021/04/17 09:17:31;;;;;;;5.60;3.63;;;;;;;22.59;17.85;100855.47;5012877;28;20037;-80
2021/04/17 09:20:33;;;;;;;8.93;4.50;;;;;;;22.58;18.22;100853.88;5015016;28;20053;-80
2021/04/17 09:23:46;;;;;;;6.82;4.72;;;;;;;20.00;20.40;100848.00;5013754;28;20523;-81
2021/04/17 09:26:31;;;;;;;7.53;4.25;;;;;;;23.77;17.86;100852.25;5016487;28;20056;-79
2021/04/17 09:29:16;;;;;;;8.95;4.32;;;;;;;23.67;17.33;100852.31;5014596;28;20053;-80
2021/04/17 09:32:04;;;;;;;10.18;4.45;;;;;;;23.42;18.05;100850.34;5007346;28;20045;-80
2021/04/17 09:34:49;;;;;;;7.80;3.97;;;;;;;25.04;16.55;100844.47;5014687;28;20053;-79
2021/04/17 09:37:34;;;;;;;8.93;4.75;;;;;;;24.87;15.92;100851.75;5012462;28;20048;-80
2021/04/17 09:40:29;;;;;;;5.78;4.15;;;;;;;25.65;14.51;100844.69;5013502;28;20048;-82
2021/04/17 09:43:31;;;;;;;8.02;4.07;;;;;;;23.92;15.70;100843.91;5015190;28;20044;-79
2021/04/17 09:46:18;;;;;;;9.35;4.57;;;;;;;22.28;17.42;100832.03;5011856;28;20060;-81
2021/04/17 09:49:03;;;;;;;6.65;5.25;;;;;;;21.42;18.47;100832.00;5009878;28;20060;-79
2021/04/17 09:51:55;;;;;;;9.52;4.57;;;;;;;24.84;16.88;100840.63;4999215;28;20045;-82
2021/04/17 09:54:40;;;;;;;5.72;3.78;;;;;;;25.63;15.02;100828.38;4997836;28;20068;-80
2021/04/17 09:57:26;;;;;;;5.50;3.92;;;;;;;26.15;13.91;100834.53;5025054;28;20045;-81
2021/04/17 10:00:11;;;;;;;6.70;4.68;;;;;;;23.45;16.18;100834.91;5014268;28;20041;-79
2021/04/17 10:02:56;;;;;;;6.07;4.65;;;;;;;24.60;15.68;100829.25;5013150;28;20040;-79
2021/04/17 10:05:41;;;;;;;7.63;4.45;;;;;;;25.97;14.45;100818.00;5013533;28;20049;-80
2021/04/17 10:08:34;;;;;;;7.82;4.45;;;;;;;25.23;14.21;100821.63;5027348;28;20396;-78
2021/04/17 10:11:28;;;;;;;8.55;4.57;;;;;;;24.40;15.88;100813.50;5029560;28;20045;-80
2021/04/17 10:14:15;;;;;;;5.40;4.50;;;;;;;23.66;17.38;100803.53;5010120;28;20164;-80
2021/04/17 10:17:00;;;;;;;7.22;4.47;;;;;;;26.93;13.40;100815.84;5013946;28;20049;-80
2021/04/17 10:19:45;;;;;;;7.13;4.75;;;;;;;26.20;13.81;100802.59;5010513;28;20052;-80
2021/04/17 10:22:30;;;;;;;6.90;4.25;;;;;;;24.47;15.32;100800.34;5008391;28;20041;-79
2021/04/17 10:25:41;;;;;;;7.82;4.88;;;;;;;26.05;14.38;100804.78;5015133;28;20514;-80
2021/04/17 10:28:29;;;;;;;5.15;3.90;;;;;;;29.16;11.44;100817.50;5008696;28;20061;-79
2021/04/17 10:31:18;;;;;;;6.28;3.35;;;;;;;27.00;12.98;100807.38;5014938;28;20056;-79
2021/04/17 10:34:03;;;;;;;6.75;4.53;;;;;;;28.95;11.58;100809.69;5012787;28;20072;-80
2021/04/17 10:36:56;;;;;;;7.50;4.55;;;;;;;28.72;11.53;100799.44;5010836;28;20045;-79
2021/04/17 10:40:09;;;;;;;6.78;4.72;;;;;;;27.79;12.33;100794.28;5011194;28;20045;-79
2021/04/17 10:42:55;;;;;;;8.60;4.38;;;;;;;29.37;10.96;100802.19;5012178;28;21056;-79
2021/04/17 10:45:41;;;;;;;5.82;4.60;;;;;;;29.26;11.37;100798.84;5016674;28;20140;-79
2021/04/17 10:48:28;;;;;;;10.27;5.00;;;;;;;27.87;12.64;100789.38;5018932;28;20404;-78
2021/04/17 10:51:16;;;;;;;11.07;4.80;;;;;;;31.58;10.27;100802.44;5010515;28;20057;-79
2021/04/17 10:54:02;;;;;;;8.85;5.07;;;;;;;28.42;11.34;100794.94;5015238;28;20041;-79
2021/04/17 10:57:00;;;;;;;6.57;4.60;;;;;;;29.00;10.62;100797.16;5013847;28;20052;-79
2021/04/17 11:00:08;;;;;;;9.57;5.22;;;;;;;33.77;8.57;100799.09;5007444;28;20041;-80
2021/04/17 11:02:54;;;;;;;7.65;5.15;;;;;;;29.34;12.11;100791.88;5011916;28;20084;-78
2021/04/17 11:05:38;;;;;;;8.18;5.15;;;;;;;26.21;14.64;100777.06;5009718;28;20053;-79
2021/04/17 11:08:30;;;;;;;15.27;5.30;;;;;;;30.27;11.33;100785.16;5007895;28;20056;-81
2021/04/17 11:11:21;;;;;;;6.07;4.90;;;;;;;28.64;11.61;100786.81;5016717;28;20044;-79
2021/04/17 11:14:06;;;;;;;10.23;4.93;;;;;;;25.90;14.92;100776.31;4996639;28;20045;-79
2021/04/17 11:16:53;;;;;;;10.38;5.05;;;;;;;29.90;10.90;100781.06;5022852;28;20056;-79
2021/04/17 11:19:41;;;;;;;7.65;4.88;;;;;;;31.85;9.72;100785.72;4999347;28;20048;-80
2021/04/17 11:22:34;;;;;;;9.00;5.80;;;;;;;29.32;11.58;100767.06;5000662;28;20049;-79
2021/04/17 11:25:19;;;;;;;9.30;5.60;;;;;;;22.32;17.06;100749.69;5005485;28;20057;-79
2021/04/17 11:28:04;;;;;;;12.90;7.47;;;;;;;21.36;19.44;100756.06;5017364;28;20503;-81
2021/04/17 11:30:54;;;;;;;36.22;5.80;;;;;;;26.21;14.63;100768.69;5024311;28;20053;-80
2021/04/17 11:33:39;;;;;;;8.55;5.80;;;;;;;30.36;10.79;100770.44;5019232;28;20037;-79
2021/04/17 11:36:26;;;;;;;11.73;5.38;;;;;;;29.51;12.19;100782.16;5027070;28;20060;-80
2021/04/17 11:39:11;;;;;;;10.18;6.93;;;;;;;29.47;11.81;100764.66;5024403;28;20049;-80
2021/04/17 11:41:56;;;;;;;7.25;5.22;;;;;;;31.10;11.23;100767.97;5028938;28;20515;-78
2021/04/17 11:44:42;;;;;;;6.95;5.75;;;;;;;27.77;13.00;100751.25;5023937;28;20045;-80
2021/04/17 11:47:27;;;;;;;6.85;5.13;;;;;;;21.39;19.30;100733.16;5025381;28;20053;-80
2021/04/17 11:50:12;;;;;;;8.30;6.03;;;;;;;18.58;22.90;100737.56;5023235;28;20045;-80
2021/04/17 11:52:58;;;;;;;9.65;5.80;;;;;;;18.84;22.75;100736.00;5025619;28;20071;-81
2021/04/17 11:55:43;;;;;;;11.35;5.55;;;;;;;18.03;23.17;100732.63;5022451;28;20057;-80
2021/04/17 11:58:28;;;;;;;9.68;5.95;;;;;;;18.45;23.09;100736.13;5014130;28;20045;-81
2021/04/17 12:01:13;;;;;;;9.82;6.15;;;;;;;18.35;22.69;100725.72;5012762;28;20412;-81
2021/04/17 12:03:58;;;;;;;;;;;;;;;17.27;24.51;100720.47;5008723;28;20040;-84
2021/04/17 12:06:49;;;;;;;8.73;5.77;;;;;;;18.26;23.75;100722.44;5005028;28;19917;-79
2021/04/17 12:09:34;;;;;;;5.93;4.32;;;;;;;15.99;24.00;100719.28;5011700;28;20060;-82
2021/04/17 12:12:19;;;;;;;7.32;4.70;;;;;;;15.59;25.45;100719.38;5011750;28;20036;-87
2021/04/17 12:15:05;;;;;;;8.20;4.68;;;;;;;16.80;23.99;100724.13;5006430;28;20056;-84
2021/04/17 12:17:50;;;;;;;8.50;4.85;;;;;;;15.70;24.10;100714.97;5031673;28;20048;-79
2021/04/17 12:20:35;;;;;;;5.90;3.60;;;;;;;16.84;23.57;100707.72;5013120;28;20707;-83
2021/04/17 12:23:21;;;;;;;8.02;5.15;;;;;;;17.02;23.94;100712.44;5007220;28;20439;-81
2021/04/17 12:26:06;;;;;;;11.90;5.00;;;;;;;17.00;24.97;100712.03;5010639;28;20049;-81
2021/04/17 12:28:50;;;;;;;8.68;5.43;;;;;;;16.53;24.94;100698.34;5024614;28;20044;-82
2021/04/17 12:31:36;;;;;;;10.50;6.63;;;;;;;16.67;25.66;100692.41;5021409;28;20048;-83
2021/04/17 12:34:22;;;;;;;12.07;5.78;;;;;;;17.13;24.99;100700.91;5006328;28;20046;-78
2021/04/17 12:37:07;;;;;;;;;;;;;;;16.74;25.40;100695.34;5027941;28;20049;-83
2021/04/17 12:39:52;;;;;;;7.93;5.82;;;;;;;16.88;23.94;100686.63;5009332;28;20319;-84
2021/04/17 12:42:37;;;;;;;9.85;4.68;;;;;;;17.18;24.01;100695.13;5028210;28;20061;-83
2021/04/17 12:45:23;;;;;;;6.70;4.78;;;;;;;15.74;24.99;100692.00;5008067;28;20053;-84
2021/04/17 12:48:09;;;;;;;8.15;5.35;;;;;;;17.20;24.19;100681.81;5009327;28;20040;-86
2021/04/17 12:50:54;;;;;;;8.90;5.47;;;;;;;18.29;21.85;100688.66;5012586;28;20056;-81
2021/04/17 12:53:39;;;;;;;7.55;4.80;;;;;;;18.65;21.15;100679.81;5026645;28;20048;-81
2021/04/17 12:56:25;;;;;;;;;;;;;;;19.74;20.22;100687.19;5014945;28;20044;-83
2021/04/17 12:59:10;;;;;;;6.65;5.03;;;;;;;27.29;12.92;100693.13;5012191;28;19913;-83
2021/04/17 13:01:55;;;;;;;5.75;3.95;;;;;;;26.82;12.62;100679.25;5011106;28;20459;-78